sensor_id;sensor_type;location;lat;lon;timestamp;temperature;humidity
11848;DHT22;5983;49.966;8.052;2023-02-11T00:00:15;2.20;99.90
11848;DHT22;5983;49.966;8.052;2023-02-11T00:02:43;2.20;99.90
11848;DHT22;5983;49.966;8.052;2023-02-11T00:05:10;2.20;99.90
11848;DHT22;5983;49.966;8.052;2023-02-11T00:07:38;2.20;99.90
11848;DHT22;5983;49.966;8.052;2023-02-11T00:10:06;2.20;99.90
11848;DHT22;5983;49.966;8.052;2023-02-11T00:12:33;2.20;99.90
11848;DHT22;5983;49.966;8.052;2023-02-11T00:15:01;2.10;99.90
11848;DHT22;5983;49.966;8.052;2023-02-11T00:17:28;2.20;99.90
11848;DHT22;5983;49.966;8.052;2023-02-11T00:19:55;2.10;99.90
11848;DHT22;5983;49.966;8.052;2023-02-11T00:22:22;2.10;99.90
11848;DHT22;5983;49.966;8.052;2023-02-11T00:24:50;2.10;99.90
11848;DHT22;5983;49.966;8.052;2023-02-11T00:27:17;2.10;99.90
11848;DHT22;5983;49.966;8.052;2023-02-11T00:29:44;2.20;99.90
11848;DHT22;5983;49.966;8.052;2023-02-11T00:32:11;2.20;99.90
11848;DHT22;5983;49.966;8.052;2023-02-11T00:34:38;2.30;99.90
11848;DHT22;5983;49.966;8.052;2023-02-11T00:37:05;2.30;99.90
11848;DHT22;5983;49.966;8.052;2023-02-11T00:39:32;2.30;99.90
11848;DHT22;5983;49.966;8.052;2023-02-11T00:42:00;2.30;99.90
11848;DHT22;5983;49.966;8.052;2023-02-11T00:44:27;2.40;99.90
11848;DHT22;5983;49.966;8.052;2023-02-11T00:46:53;2.40;99.90
11848;DHT22;5983;49.966;8.052;2023-02-11T00:49:20;2.40;99.90
11848;DHT22;5983;49.966;8.052;2023-02-11T00:51:47;2.40;99.90
11848;DHT22;5983;49.966;8.052;2023-02-11T00:54:14;2.40;99.90
11848;DHT22;5983;49.966;8.052;2023-02-11T00:56:41;2.40;99.90
11848;DHT22;5983;49.966;8.052;2023-02-11T00:59:09;2.40;99.90
11848;DHT22;5983;49.966;8.052;2023-02-11T01:01:36;2.40;99.90
11848;DHT22;5983;49.966;8.052;2023-02-11T01:04:03;2.50;99.90
11848;DHT22;5983;49.966;8.052;2023-02-11T01:06:30;2.50;99.90
11848;DHT22;5983;49.966;8.052;2023-02-11T01:08:57;2.60;99.90
11848;DHT22;5983;49.966;8.052;2023-02-11T01:11:24;2.60;99.90
11848;DHT22;5983;49.966;8.052;2023-02-11T01:13:51;2.70;99.90
11848;DHT22;5983;49.966;8.052;2023-02-11T01:16:20;2.70;99.90
11848;DHT22;5983;49.966;8.052;2023-02-11T01:18:47;2.70;99.90
11848;DHT22;5983;49.966;8.052;2023-02-11T01:21:14;2.80;99.90
11848;DHT22;5983;49.966;8.052;2023-02-11T01:23:41;2.80;99.90
11848;DHT22;5983;49.966;8.052;2023-02-11T01:26:08;2.70;99.90
11848;DHT22;5983;49.966;8.052;2023-02-11T01:28:35;2.80;99.90
11848;DHT22;5983;49.966;8.052;2023-02-11T01:31:02;2.80;99.90
11848;DHT22;5983;49.966;8.052;2023-02-11T01:33:31;2.80;99.90
11848;DHT22;5983;49.966;8.052;2023-02-11T01:36:00;2.80;99.90
11848;DHT22;5983;49.966;8.052;2023-02-11T01:38:27;2.80;99.90
11848;DHT22;5983;49.966;8.052;2023-02-11T01:40:56;2.80;99.90
11848;DHT22;5983;49.966;8.052;2023-02-11T01:43:25;2.80;99.90
11848;DHT22;5983;49.966;8.052;2023-02-11T01:45:58;2.80;99.90
11848;DHT22;5983;49.966;8.052;2023-02-11T01:48:35;2.80;99.90
11848;DHT22;5983;49.966;8.052;2023-02-11T01:51:07;2.80;99.90
11848;DHT22;5983;49.966;8.052;2023-02-11T01:53:38;2.80;99.90
11848;DHT22;5983;49.966;8.052;2023-02-11T01:56:25;2.80;99.90
11848;DHT22;5983;49.966;8.052;2023-02-11T01:59:14;2.80;99.90
11848;DHT22;5983;49.966;8.052;2023-02-11T02:01:47;2.80;99.90
11848;DHT22;5983;49.966;8.052;2023-02-11T02:04:20;2.80;99.90
11848;DHT22;5983;49.966;8.052;2023-02-11T02:06:56;2.80;99.90
11848;DHT22;5983;49.966;8.052;2023-02-11T02:09:29;2.80;99.90
11848;DHT22;5983;49.966;8.052;2023-02-11T02:12:03;2.80;99.90
11848;DHT22;5983;49.966;8.052;2023-02-11T02:14:30;2.90;99.90
11848;DHT22;5983;49.966;8.052;2023-02-11T02:16:57;2.90;99.90
11848;DHT22;5983;49.966;8.052;2023-02-11T02:19:46;2.90;99.90
11848;DHT22;5983;49.966;8.052;2023-02-11T02:23:06;2.90;99.90
11848;DHT22;5983;49.966;8.052;2023-02-11T02:32:32;3.00;99.90
11848;DHT22;5983;49.966;8.052;2023-02-11T02:35:21;3.00;99.90
11848;DHT22;5983;49.966;8.052;2023-02-11T02:37:56;3.10;99.90
11848;DHT22;5983;49.966;8.052;2023-02-11T02:40:30;3.10;99.90
11848;DHT22;5983;49.966;8.052;2023-02-11T02:43:00;3.10;99.90
11848;DHT22;5983;49.966;8.052;2023-02-11T02:45:29;3.10;99.90
11848;DHT22;5983;49.966;8.052;2023-02-11T02:47:57;3.10;99.90
11848;DHT22;5983;49.966;8.052;2023-02-11T02:50:28;3.10;99.90
11848;DHT22;5983;49.966;8.052;2023-02-11T02:53:10;3.20;99.90
11848;DHT22;5983;49.966;8.052;2023-02-11T02:55:51;3.20;99.90
11848;DHT22;5983;49.966;8.052;2023-02-11T02:58:44;3.20;99.90
11848;DHT22;5983;49.966;8.052;2023-02-11T03:01:33;3.30;99.90
11848;DHT22;5983;49.966;8.052;2023-02-11T03:04:14;3.30;99.90
11848;DHT22;5983;49.966;8.052;2023-02-11T03:06:51;3.30;99.90
11848;DHT22;5983;49.966;8.052;2023-02-11T03:09:27;3.30;99.90
11848;DHT22;5983;49.966;8.052;2023-02-11T03:11:59;3.20;99.90
11848;DHT22;5983;49.966;8.052;2023-02-11T03:14:29;3.30;99.90
11848;DHT22;5983;49.966;8.052;2023-02-11T03:16:59;3.30;99.90
11848;DHT22;5983;49.966;8.052;2023-02-11T03:19:33;3.30;99.90
11848;DHT22;5983;49.966;8.052;2023-02-11T03:22:07;3.40;99.90
11848;DHT22;5983;49.966;8.052;2023-02-11T03:24:40;3.40;99.90
11848;DHT22;5983;49.966;8.052;2023-02-11T03:27:11;3.50;99.90
11848;DHT22;5983;49.966;8.052;2023-02-11T03:29:50;3.50;99.90
11848;DHT22;5983;49.966;8.052;2023-02-11T03:32:24;3.60;99.90
11848;DHT22;5983;49.966;8.052;2023-02-11T03:34:57;3.60;99.90
11848;DHT22;5983;49.966;8.052;2023-02-11T03:37:30;3.60;99.90
11848;DHT22;5983;49.966;8.052;2023-02-11T03:40:03;3.70;99.90
11848;DHT22;5983;49.966;8.052;2023-02-11T03:42:35;3.70;99.90
11848;DHT22;5983;49.966;8.052;2023-02-11T03:45:09;3.70;99.90
11848;DHT22;5983;49.966;8.052;2023-02-11T03:47:42;3.70;99.90
11848;DHT22;5983;49.966;8.052;2023-02-11T03:50:15;3.70;99.90
11848;DHT22;5983;49.966;8.052;2023-02-11T03:52:44;3.60;99.90
11848;DHT22;5983;49.966;8.052;2023-02-11T03:55:16;3.70;99.90
11848;DHT22;5983;49.966;8.052;2023-02-11T03:57:46;3.70;99.90
11848;DHT22;5983;49.966;8.052;2023-02-11T04:00:14;3.70;99.90
11848;DHT22;5983;49.966;8.052;2023-02-11T04:02:41;3.70;99.90
11848;DHT22;5983;49.966;8.052;2023-02-11T04:05:11;3.70;99.90
11848;DHT22;5983;49.966;8.052;2023-02-11T04:07:41;3.70;99.90
11848;DHT22;5983;49.966;8.052;2023-02-11T04:10:10;3.70;99.90
11848;DHT22;5983;49.966;8.052;2023-02-11T04:12:37;3.60;99.90
11848;DHT22;5983;49.966;8.052;2023-02-11T04:15:05;3.70;99.90
11848;DHT22;5983;49.966;8.052;2023-02-11T04:17:33;3.60;99.90
11848;DHT22;5983;49.966;8.052;2023-02-11T04:20:00;3.60;99.90
11848;DHT22;5983;49.966;8.052;2023-02-11T04:22:28;3.60;99.90
11848;DHT22;5983;49.966;8.052;2023-02-11T04:24:56;3.60;99.90
11848;DHT22;5983;49.966;8.052;2023-02-11T04:27:23;3.50;99.90
11848;DHT22;5983;49.966;8.052;2023-02-11T04:29:50;3.50;99.90
11848;DHT22;5983;49.966;8.052;2023-02-11T04:32:17;3.50;99.90
11848;DHT22;5983;49.966;8.052;2023-02-11T04:34:44;3.50;99.90
11848;DHT22;5983;49.966;8.052;2023-02-11T04:37:11;3.40;99.90
11848;DHT22;5983;49.966;8.052;2023-02-11T04:39:39;3.50;99.90
11848;DHT22;5983;49.966;8.052;2023-02-11T04:42:06;3.40;99.90
11848;DHT22;5983;49.966;8.052;2023-02-11T04:44:33;3.40;99.90
11848;DHT22;5983;49.966;8.052;2023-02-11T04:47:00;3.40;99.90
11848;DHT22;5983;49.966;8.052;2023-02-11T04:49:27;3.40;99.90
11848;DHT22;5983;49.966;8.052;2023-02-11T04:51:54;3.40;99.90
11848;DHT22;5983;49.966;8.052;2023-02-11T04:54:21;3.40;99.90
11848;DHT22;5983;49.966;8.052;2023-02-11T04:56:50;3.40;99.90
11848;DHT22;5983;49.966;8.052;2023-02-11T04:59:16;3.40;99.90
11848;DHT22;5983;49.966;8.052;2023-02-11T05:01:43;3.40;99.90
11848;DHT22;5983;49.966;8.052;2023-02-11T05:04:10;3.40;99.90
11848;DHT22;5983;49.966;8.052;2023-02-11T05:06:38;3.40;99.90
11848;DHT22;5983;49.966;8.052;2023-02-11T05:09:05;3.50;99.90
11848;DHT22;5983;49.966;8.052;2023-02-11T05:11:32;3.50;99.90
11848;DHT22;5983;49.966;8.052;2023-02-11T05:14:02;3.50;99.90
11848;DHT22;5983;49.966;8.052;2023-02-11T05:16:29;3.40;99.90
11848;DHT22;5983;49.966;8.052;2023-02-11T05:18:56;3.40;99.90
11848;DHT22;5983;49.966;8.052;2023-02-11T05:21:23;3.40;99.90
11848;DHT22;5983;49.966;8.052;2023-02-11T05:23:51;3.40;99.90
11848;DHT22;5983;49.966;8.052;2023-02-11T05:26:18;3.40;99.90
11848;DHT22;5983;49.966;8.052;2023-02-11T05:28:45;3.40;99.90
11848;DHT22;5983;49.966;8.052;2023-02-11T05:31:13;3.50;99.90
11848;DHT22;5983;49.966;8.052;2023-02-11T05:33:41;3.50;99.90
11848;DHT22;5983;49.966;8.052;2023-02-11T05:36:10;3.50;99.90
11848;DHT22;5983;49.966;8.052;2023-02-11T05:38:38;3.50;99.90
11848;DHT22;5983;49.966;8.052;2023-02-11T05:41:08;3.50;99.90
11848;DHT22;5983;49.966;8.052;2023-02-11T05:43:36;3.60;99.90
11848;DHT22;5983;49.966;8.052;2023-02-11T05:46:03;3.50;99.90
11848;DHT22;5983;49.966;8.052;2023-02-11T05:48:32;3.50;99.90
11848;DHT22;5983;49.966;8.052;2023-02-11T05:50:59;3.50;99.90
11848;DHT22;5983;49.966;8.052;2023-02-11T05:53:26;3.50;99.90
11848;DHT22;5983;49.966;8.052;2023-02-11T05:55:53;3.50;99.90
11848;DHT22;5983;49.966;8.052;2023-02-11T05:58:20;3.50;99.90
11848;DHT22;5983;49.966;8.052;2023-02-11T06:00:47;3.50;99.90
11848;DHT22;5983;49.966;8.052;2023-02-11T06:03:14;3.50;99.90
11848;DHT22;5983;49.966;8.052;2023-02-11T06:05:43;3.50;99.90
11848;DHT22;5983;49.966;8.052;2023-02-11T06:08:11;3.50;99.90
11848;DHT22;5983;49.966;8.052;2023-02-11T06:10:38;3.50;99.90
11848;DHT22;5983;49.966;8.052;2023-02-11T06:13:07;3.40;99.90
11848;DHT22;5983;49.966;8.052;2023-02-11T06:15:34;3.30;99.90
11848;DHT22;5983;49.966;8.052;2023-02-11T06:18:01;3.30;99.90
11848;DHT22;5983;49.966;8.052;2023-02-11T06:20:28;3.30;99.90
11848;DHT22;5983;49.966;8.052;2023-02-11T06:22:56;3.30;99.90
11848;DHT22;5983;49.966;8.052;2023-02-11T06:25:23;3.20;99.90
11848;DHT22;5983;49.966;8.052;2023-02-11T06:27:50;3.20;99.90
11848;DHT22;5983;49.966;8.052;2023-02-11T06:30:17;3.30;99.90
11848;DHT22;5983;49.966;8.052;2023-02-11T06:32:44;3.30;99.90
11848;DHT22;5983;49.966;8.052;2023-02-11T06:35:12;3.30;99.90
11848;DHT22;5983;49.966;8.052;2023-02-11T06:37:40;3.20;99.90
11848;DHT22;5983;49.966;8.052;2023-02-11T06:40:10;3.20;99.90
11848;DHT22;5983;49.966;8.052;2023-02-11T06:42:37;3.20;99.90
11848;DHT22;5983;49.966;8.052;2023-02-11T06:45:04;3.20;99.90
11848;DHT22;5983;49.966;8.052;2023-02-11T06:47:33;3.20;99.90
11848;DHT22;5983;49.966;8.052;2023-02-11T06:50:00;3.20;99.90
11848;DHT22;5983;49.966;8.052;2023-02-11T06:52:27;3.20;99.90
11848;DHT22;5983;49.966;8.052;2023-02-11T06:54:54;3.20;99.90
11848;DHT22;5983;49.966;8.052;2023-02-11T06:57:22;3.20;99.90
11848;DHT22;5983;49.966;8.052;2023-02-11T06:59:49;3.30;99.90
11848;DHT22;5983;49.966;8.052;2023-02-11T07:02:17;3.30;99.90
11848;DHT22;5983;49.966;8.052;2023-02-11T07:04:44;3.30;99.90
11848;DHT22;5983;49.966;8.052;2023-02-11T07:07:11;3.30;99.90
11848;DHT22;5983;49.966;8.052;2023-02-11T07:09:38;3.30;99.90
11848;DHT22;5983;49.966;8.052;2023-02-11T07:12:05;3.40;99.90
11848;DHT22;5983;49.966;8.052;2023-02-11T07:14:33;3.40;99.90
11848;DHT22;5983;49.966;8.052;2023-02-11T07:17:00;3.50;99.90
11848;DHT22;5983;49.966;8.052;2023-02-11T07:19:28;3.50;99.90
11848;DHT22;5983;49.966;8.052;2023-02-11T07:21:55;3.50;99.90
11848;DHT22;5983;49.966;8.052;2023-02-11T07:24:22;3.50;99.90
11848;DHT22;5983;49.966;8.052;2023-02-11T07:26:49;3.60;99.90
11848;DHT22;5983;49.966;8.052;2023-02-11T07:29:16;3.70;99.90
11848;DHT22;5983;49.966;8.052;2023-02-11T07:31:44;3.80;99.90
11848;DHT22;5983;49.966;8.052;2023-02-11T07:34:11;4.00;99.90
11848;DHT22;5983;49.966;8.052;2023-02-11T07:36:38;4.20;99.90
11848;DHT22;5983;49.966;8.052;2023-02-11T07:39:08;4.30;99.90
11848;DHT22;5983;49.966;8.052;2023-02-11T07:41:35;4.40;99.90
11848;DHT22;5983;49.966;8.052;2023-02-11T07:44:02;4.40;99.90
11848;DHT22;5983;49.966;8.052;2023-02-11T07:46:29;4.40;99.90
11848;DHT22;5983;49.966;8.052;2023-02-11T07:48:58;4.40;99.90
11848;DHT22;5983;49.966;8.052;2023-02-11T07:51:27;4.50;99.90
11848;DHT22;5983;49.966;8.052;2023-02-11T07:53:56;4.50;99.90
11848;DHT22;5983;49.966;8.052;2023-02-11T07:56:25;4.60;99.90
11848;DHT22;5983;49.966;8.052;2023-02-11T07:58:53;4.80;99.90
11848;DHT22;5983;49.966;8.052;2023-02-11T08:01:23;5.10;99.90
11848;DHT22;5983;49.966;8.052;2023-02-11T08:03:53;5.60;99.90
11848;DHT22;5983;49.966;8.052;2023-02-11T08:06:24;6.10;99.90
11848;DHT22;5983;49.966;8.052;2023-02-11T08:08:53;6.40;99.90
11848;DHT22;5983;49.966;8.052;2023-02-11T08:11:21;6.60;99.90
11848;DHT22;5983;49.966;8.052;2023-02-11T08:13:50;6.60;99.90
11848;DHT22;5983;49.966;8.052;2023-02-11T08:16:20;6.70;99.90
11848;DHT22;5983;49.966;8.052;2023-02-11T08:18:49;6.80;99.90
11848;DHT22;5983;49.966;8.052;2023-02-11T08:21:17;7.00;99.90
11848;DHT22;5983;49.966;8.052;2023-02-11T08:23:47;7.10;99.90
11848;DHT22;5983;49.966;8.052;2023-02-11T08:26:17;7.60;99.90
11848;DHT22;5983;49.966;8.052;2023-02-11T08:28:46;8.60;99.90
11848;DHT22;5983;49.966;8.052;2023-02-11T08:31:16;9.70;99.90
11848;DHT22;5983;49.966;8.052;2023-02-11T08:33:44;10.80;99.90
11848;DHT22;5983;49.966;8.052;2023-02-11T08:36:13;12.20;99.90
11848;DHT22;5983;49.966;8.052;2023-02-11T08:38:42;13.30;99.90
11848;DHT22;5983;49.966;8.052;2023-02-11T08:41:11;14.50;99.90
11848;DHT22;5983;49.966;8.052;2023-02-11T08:43:40;15.50;99.90
11848;DHT22;5983;49.966;8.052;2023-02-11T08:46:08;15.80;97.60
11848;DHT22;5983;49.966;8.052;2023-02-11T08:48:38;15.60;95.60
11848;DHT22;5983;49.966;8.052;2023-02-11T08:51:06;15.40;95.60
11848;DHT22;5983;49.966;8.052;2023-02-11T08:53:34;15.00;95.10
11848;DHT22;5983;49.966;8.052;2023-02-11T08:56:02;14.40;95.30
11848;DHT22;5983;49.966;8.052;2023-02-11T08:58:31;13.60;95.60
11848;DHT22;5983;49.966;8.052;2023-02-11T09:00:58;13.20;96.60
11848;DHT22;5983;49.966;8.052;2023-02-11T09:03:25;13.00;97.40
11848;DHT22;5983;49.966;8.052;2023-02-11T09:05:52;13.30;97.70
11848;DHT22;5983;49.966;8.052;2023-02-11T09:08:20;14.10;96.60
11848;DHT22;5983;49.966;8.052;2023-02-11T09:10:47;14.60;95.20
11848;DHT22;5983;49.966;8.052;2023-02-11T09:13:14;14.60;93.80
11848;DHT22;5983;49.966;8.052;2023-02-11T09:15:45;14.50;93.80
11848;DHT22;5983;49.966;8.052;2023-02-11T09:18:12;14.30;94.10
11848;DHT22;5983;49.966;8.052;2023-02-11T09:20:39;13.50;94.40
11848;DHT22;5983;49.966;8.052;2023-02-11T09:23:06;12.50;95.60
11848;DHT22;5983;49.966;8.052;2023-02-11T09:25:34;11.40;97.60
11848;DHT22;5983;49.966;8.052;2023-02-11T09:28:04;10.40;99.90
11848;DHT22;5983;49.966;8.052;2023-02-11T09:30:31;9.60;99.90
11848;DHT22;5983;49.966;8.052;2023-02-11T09:33:00;9.20;99.90
11848;DHT22;5983;49.966;8.052;2023-02-11T09:35:27;8.80;99.90
11848;DHT22;5983;49.966;8.052;2023-02-11T09:37:54;8.50;99.90
11848;DHT22;5983;49.966;8.052;2023-02-11T09:40:22;8.20;99.90
11848;DHT22;5983;49.966;8.052;2023-02-11T09:42:50;8.00;99.90
11848;DHT22;5983;49.966;8.052;2023-02-11T09:45:24;7.80;99.90
11848;DHT22;5983;49.966;8.052;2023-02-11T09:47:54;7.70;99.90
11848;DHT22;5983;49.966;8.052;2023-02-11T09:50:29;7.70;99.90
11848;DHT22;5983;49.966;8.052;2023-02-11T09:53:01;7.60;99.90
11848;DHT22;5983;49.966;8.052;2023-02-11T09:55:33;7.60;99.90
11848;DHT22;5983;49.966;8.052;2023-02-11T09:58:04;7.50;99.90
11848;DHT22;5983;49.966;8.052;2023-02-11T10:00:40;7.30;99.90
11848;DHT22;5983;49.966;8.052;2023-02-11T10:06:40;7.30;99.90
11848;DHT22;5983;49.966;8.052;2023-02-11T10:09:24;7.30;99.90
11848;DHT22;5983;49.966;8.052;2023-02-11T10:12:14;7.30;99.90
11848;DHT22;5983;49.966;8.052;2023-02-11T10:15:01;7.40;99.90
11848;DHT22;5983;49.966;8.052;2023-02-11T10:17:55;7.40;99.90
11848;DHT22;5983;49.966;8.052;2023-02-11T10:20:38;7.40;99.90
11848;DHT22;5983;49.966;8.052;2023-02-11T10:23:20;7.40;99.90
11848;DHT22;5983;49.966;8.052;2023-02-11T10:25:52;7.50;99.90
11848;DHT22;5983;49.966;8.052;2023-02-11T10:28:22;7.50;99.90
11848;DHT22;5983;49.966;8.052;2023-02-11T10:30:57;7.50;99.90
11848;DHT22;5983;49.966;8.052;2023-02-11T10:33:28;7.60;99.90
11848;DHT22;5983;49.966;8.052;2023-02-11T10:35:58;7.60;99.90
11848;DHT22;5983;49.966;8.052;2023-02-11T10:38:27;7.70;99.90
11848;DHT22;5983;49.966;8.052;2023-02-11T10:40:54;7.80;99.90
11848;DHT22;5983;49.966;8.052;2023-02-11T10:43:25;7.80;99.90
11848;DHT22;5983;49.966;8.052;2023-02-11T10:45:55;7.90;99.90
11848;DHT22;5983;49.966;8.052;2023-02-11T10:48:38;8.00;99.90
11848;DHT22;5983;49.966;8.052;2023-02-11T10:51:11;8.00;99.90
11848;DHT22;5983;49.966;8.052;2023-02-11T10:53:43;8.10;99.90
11848;DHT22;5983;49.966;8.052;2023-02-11T10:56:11;8.10;99.90
11848;DHT22;5983;49.966;8.052;2023-02-11T10:58:58;8.10;99.90
11848;DHT22;5983;49.966;8.052;2023-02-11T11:01:39;8.10;99.90
11848;DHT22;5983;49.966;8.052;2023-02-11T11:04:32;8.20;99.90
11848;DHT22;5983;49.966;8.052;2023-02-11T11:07:11;8.10;99.90
11848;DHT22;5983;49.966;8.052;2023-02-11T11:09:49;8.10;99.90
11848;DHT22;5983;49.966;8.052;2023-02-11T11:12:27;8.10;99.90
11848;DHT22;5983;49.966;8.052;2023-02-11T11:14:58;8.10;99.90
11848;DHT22;5983;49.966;8.052;2023-02-11T11:17:27;8.10;99.90
11848;DHT22;5983;49.966;8.052;2023-02-11T11:20:13;8.10;99.90
11848;DHT22;5983;49.966;8.052;2023-02-11T11:22:44;8.10;99.90
11848;DHT22;5983;49.966;8.052;2023-02-11T11:25:26;8.20;99.90
11848;DHT22;5983;49.966;8.052;2023-02-11T11:27:56;8.30;99.90
11848;DHT22;5983;49.966;8.052;2023-02-11T11:30:27;8.30;99.90
11848;DHT22;5983;49.966;8.052;2023-02-11T11:32:59;8.50;99.90
11848;DHT22;5983;49.966;8.052;2023-02-11T11:35:29;8.90;99.90
11848;DHT22;5983;49.966;8.052;2023-02-11T11:38:00;10.00;99.90
11848;DHT22;5983;49.966;8.052;2023-02-11T11:40:31;11.80;99.90
11848;DHT22;5983;49.966;8.052;2023-02-11T11:43:06;14.20;99.90
11848;DHT22;5983;49.966;8.052;2023-02-11T11:45:52;17.60;99.90
11848;DHT22;5983;49.966;8.052;2023-02-11T11:48:25;20.50;91.20
11848;DHT22;5983;49.966;8.052;2023-02-11T11:50:57;21.10;79.60
11848;DHT22;5983;49.966;8.052;2023-02-11T11:53:33;20.90;74.30
11848;DHT22;5983;49.966;8.052;2023-02-11T11:56:11;19.80;73.50
11848;DHT22;5983;49.966;8.052;2023-02-11T11:58:42;18.50;76.60
11848;DHT22;5983;49.966;8.052;2023-02-11T12:01:23;17.20;80.60
11848;DHT22;5983;49.966;8.052;2023-02-11T12:07:16;14.80;90.20
11848;DHT22;5983;49.966;8.052;2023-02-11T12:10:11;13.90;93.20
11848;DHT22;5983;49.966;8.052;2023-02-11T12:12:55;13.10;96.50
11848;DHT22;5983;49.966;8.052;2023-02-11T12:15:37;12.30;99.50
11848;DHT22;5983;49.966;8.052;2023-02-11T12:18:32;11.90;99.90
11848;DHT22;5983;49.966;8.052;2023-02-11T12:21:27;11.50;99.90
11848;DHT22;5983;49.966;8.052;2023-02-11T12:24:20;11.20;99.90
11848;DHT22;5983;49.966;8.052;2023-02-11T12:27:00;11.00;99.90
11848;DHT22;5983;49.966;8.052;2023-02-11T12:29:39;10.80;99.90
11848;DHT22;5983;49.966;8.052;2023-02-11T12:32:20;10.60;99.90
11848;DHT22;5983;49.966;8.052;2023-02-11T12:35:10;10.40;99.90
11848;DHT22;5983;49.966;8.052;2023-02-11T12:40:57;10.10;99.90
11848;DHT22;5983;49.966;8.052;2023-02-11T12:43:36;9.90;99.90
11848;DHT22;5983;49.966;8.052;2023-02-11T12:46:20;9.80;99.90
11848;DHT22;5983;49.966;8.052;2023-02-11T12:49:14;9.70;99.90
11848;DHT22;5983;49.966;8.052;2023-02-11T12:52:08;9.60;99.90
11848;DHT22;5983;49.966;8.052;2023-02-11T12:54:47;9.60;99.90
11848;DHT22;5983;49.966;8.052;2023-02-11T12:57:22;9.50;99.90
11848;DHT22;5983;49.966;8.052;2023-02-11T12:59:56;9.50;99.90
11848;DHT22;5983;49.966;8.052;2023-02-11T13:02:33;9.40;99.90
11848;DHT22;5983;49.966;8.052;2023-02-11T13:05:18;9.40;99.90
11848;DHT22;5983;49.966;8.052;2023-02-11T13:08:04;9.40;99.90
11848;DHT22;5983;49.966;8.052;2023-02-11T13:10:40;9.40;99.90
11848;DHT22;5983;49.966;8.052;2023-02-11T13:13:14;9.50;99.90
11848;DHT22;5983;49.966;8.052;2023-02-11T13:15:49;9.50;99.90
11848;DHT22;5983;49.966;8.052;2023-02-11T13:18:31;9.50;99.90
11848;DHT22;5983;49.966;8.052;2023-02-11T13:21:22;9.50;99.90
11848;DHT22;5983;49.966;8.052;2023-02-11T13:24:05;9.40;99.90
11848;DHT22;5983;49.966;8.052;2023-02-11T13:26:43;9.50;99.90
11848;DHT22;5983;49.966;8.052;2023-02-11T13:29:24;9.40;99.90
11848;DHT22;5983;49.966;8.052;2023-02-11T13:32:05;9.50;99.90
11848;DHT22;5983;49.966;8.052;2023-02-11T13:34:55;9.50;99.90
11848;DHT22;5983;49.966;8.052;2023-02-11T13:37:25;9.50;99.90
11848;DHT22;5983;49.966;8.052;2023-02-11T13:39:58;9.50;99.90
11848;DHT22;5983;49.966;8.052;2023-02-11T13:42:26;9.50;99.90
11848;DHT22;5983;49.966;8.052;2023-02-11T13:44:55;9.50;99.90
11848;DHT22;5983;49.966;8.052;2023-02-11T13:47:29;9.50;99.90
11848;DHT22;5983;49.966;8.052;2023-02-11T13:50:02;9.50;99.90
11848;DHT22;5983;49.966;8.052;2023-02-11T13:52:33;9.50;99.90
11848;DHT22;5983;49.966;8.052;2023-02-11T13:55:08;9.50;99.90
11848;DHT22;5983;49.966;8.052;2023-02-11T13:58:18;9.50;99.90
11848;DHT22;5983;49.966;8.052;2023-02-11T14:01:00;9.50;99.90
11848;DHT22;5983;49.966;8.052;2023-02-11T14:03:30;9.40;99.90
11848;DHT22;5983;49.966;8.052;2023-02-11T14:06:24;9.40;99.90
11848;DHT22;5983;49.966;8.052;2023-02-11T14:09:36;9.40;99.90
11848;DHT22;5983;49.966;8.052;2023-02-11T14:12:38;9.30;99.90
11848;DHT22;5983;49.966;8.052;2023-02-11T14:15:26;9.30;99.90
11848;DHT22;5983;49.966;8.052;2023-02-11T14:18:37;9.20;99.90
11848;DHT22;5983;49.966;8.052;2023-02-11T14:21:32;9.30;99.90
11848;DHT22;5983;49.966;8.052;2023-02-11T14:27:14;9.30;99.90
11848;DHT22;5983;49.966;8.052;2023-02-11T14:29:58;9.20;99.90
11848;DHT22;5983;49.966;8.052;2023-02-11T14:32:42;9.20;99.90
11848;DHT22;5983;49.966;8.052;2023-02-11T14:35:23;9.20;99.90
11848;DHT22;5983;49.966;8.052;2023-02-11T14:38:02;9.20;99.90
11848;DHT22;5983;49.966;8.052;2023-02-11T14:40:37;9.20;99.90
11848;DHT22;5983;49.966;8.052;2023-02-11T14:43:12;9.10;99.90
11848;DHT22;5983;49.966;8.052;2023-02-11T14:45:48;9.10;99.90
11848;DHT22;5983;49.966;8.052;2023-02-11T14:48:20;9.10;99.90
11848;DHT22;5983;49.966;8.052;2023-02-11T14:50:59;9.10;99.90
11848;DHT22;5983;49.966;8.052;2023-02-11T14:53:30;9.10;99.90
11848;DHT22;5983;49.966;8.052;2023-02-11T14:55:59;9.00;99.90
11848;DHT22;5983;49.966;8.052;2023-02-11T14:58:27;9.10;99.90
11848;DHT22;5983;49.966;8.052;2023-02-11T15:00:58;9.10;99.90
11848;DHT22;5983;49.966;8.052;2023-02-11T15:03:29;9.10;99.90
11848;DHT22;5983;49.966;8.052;2023-02-11T15:06:02;9.10;99.90
11848;DHT22;5983;49.966;8.052;2023-02-11T15:08:33;9.00;99.90
11848;DHT22;5983;49.966;8.052;2023-02-11T15:11:08;9.00;99.90
11848;DHT22;5983;49.966;8.052;2023-02-11T15:13:37;9.00;99.90
11848;DHT22;5983;49.966;8.052;2023-02-11T15:16:09;9.00;99.90
11848;DHT22;5983;49.966;8.052;2023-02-11T15:18:42;9.00;99.90
11848;DHT22;5983;49.966;8.052;2023-02-11T15:21:19;8.90;99.90
11848;DHT22;5983;49.966;8.052;2023-02-11T15:23:54;8.90;99.90
11848;DHT22;5983;49.966;8.052;2023-02-11T15:26:23;8.90;99.90
11848;DHT22;5983;49.966;8.052;2023-02-11T15:28:50;8.80;99.90
11848;DHT22;5983;49.966;8.052;2023-02-11T15:31:19;8.80;99.90
11848;DHT22;5983;49.966;8.052;2023-02-11T15:33:48;8.80;99.90
11848;DHT22;5983;49.966;8.052;2023-02-11T15:36:18;8.80;99.90
11848;DHT22;5983;49.966;8.052;2023-02-11T15:39:18;8.80;99.90
11848;DHT22;5983;49.966;8.052;2023-02-11T15:42:15;8.70;99.90
11848;DHT22;5983;49.966;8.052;2023-02-11T15:44:43;8.70;99.90
11848;DHT22;5983;49.966;8.052;2023-02-11T15:47:11;8.70;99.90
11848;DHT22;5983;49.966;8.052;2023-02-11T15:49:44;8.70;99.90
11848;DHT22;5983;49.966;8.052;2023-02-11T15:52:13;8.70;99.90
11848;DHT22;5983;49.966;8.052;2023-02-11T15:54:47;8.70;99.90
11848;DHT22;5983;49.966;8.052;2023-02-11T15:57:15;8.70;99.90
11848;DHT22;5983;49.966;8.052;2023-02-11T15:59:46;8.60;99.90
11848;DHT22;5983;49.966;8.052;2023-02-11T16:02:17;8.60;99.90
11848;DHT22;5983;49.966;8.052;2023-02-11T16:04:51;8.60;99.90
11848;DHT22;5983;49.966;8.052;2023-02-11T16:07:46;8.60;99.90
11848;DHT22;5983;49.966;8.052;2023-02-11T16:10:21;8.60;99.90
11848;DHT22;5983;49.966;8.052;2023-02-11T16:12:55;8.50;99.90
11848;DHT22;5983;49.966;8.052;2023-02-11T16:15:45;8.50;99.90
11848;DHT22;5983;49.966;8.052;2023-02-11T16:18:28;8.50;99.90
11848;DHT22;5983;49.966;8.052;2023-02-11T16:20:58;8.50;99.90
11848;DHT22;5983;49.966;8.052;2023-02-11T16:23:30;8.50;99.90
11848;DHT22;5983;49.966;8.052;2023-02-11T16:26:01;8.40;99.90
11848;DHT22;5983;49.966;8.052;2023-02-11T16:28:33;8.40;99.90
11848;DHT22;5983;49.966;8.052;2023-02-11T16:31:01;8.40;99.90
11848;DHT22;5983;49.966;8.052;2023-02-11T16:33:28;8.40;99.90
11848;DHT22;5983;49.966;8.052;2023-02-11T16:35:56;8.40;99.90
11848;DHT22;5983;49.966;8.052;2023-02-11T16:38:28;8.30;99.90
11848;DHT22;5983;49.966;8.052;2023-02-11T16:40:55;8.30;99.90
11848;DHT22;5983;49.966;8.052;2023-02-11T16:43:22;8.30;99.90
11848;DHT22;5983;49.966;8.052;2023-02-11T16:45:49;8.20;99.90
11848;DHT22;5983;49.966;8.052;2023-02-11T16:48:17;8.20;99.90
11848;DHT22;5983;49.966;8.052;2023-02-11T16:50:47;8.10;99.90
11848;DHT22;5983;49.966;8.052;2023-02-11T16:53:18;8.10;99.90